メインページ
METAR-TAF:

METAR-TAF

空港 :

マジュロ国際空港

マジュロ, マーシャル諸島

緯度: 07-04N, 経度: 171-17E, 海抜: 2m

現時点の気象観測

当レポートは35分前の21:56(UTC)に作成
東/北東の風 8kt
気温 30°C
湿度 75%
気圧 1011 hPa
視程: 24.1km
高度1500ftの雲はほとんどない
高度5000ftの雲は散在している
高度30000ftの千切れ雲あり

METAR: PKMJ 202156Z 07008KT 15SM FEW015 SCT050 BKN300 30/25 A2985 RMK LAST

時間: 10:31 (22:31 UTC)

予報

当レポートは5時間11分前の17:20(UTC)に作成
予報は20日の 18時(UTC)から 21日の 18時(UTC)まで有効
の風 7kt
視程: 10km
高度1400ftの雲は散在している
高度5000ftの雲は散在している
高度12000ftの千切れ雲あり
近辺でにわか雨
20日の 18時(UTC)から 20日の 20時(UTC)まで一時的に
視程: 8.0km
高度1300ftの雲は散在している
高度3000ftの千切れ雲あり
弱いにわか雨

TAF: PKMJ 201720Z 2018/2118 09007KT P6SM VCSH SCT014 SCT050 BKN120 TEMPO 2018/2020 5SM -SHRA SCT013 BKN030

4,000以上の空港の気象観測と天気予報(METAR報とTAF報)

利用可能な観測所は地図上に黄色い丸と赤い丸で示す。

丸の上にカーソルを重ねると観測所名を参照できる。

次にクリックすると気象観測と天気予報を参照できる。

マップの切り替え:黒色「×」印の緑ボタンをクリックして拡大、「-」印の緑ボタンをクリックして縮小、緑色の三角印をクリックして隣りの地図に切り替え


METAR-TAF: